createdAt,value
2017-05-04T00:00:53.873Z,10.30
2017-05-04T00:06:14.980Z,10.20
2017-05-04T00:08:44.134Z,10.20
2017-05-04T00:11:13.299Z,10.10
2017-05-04T00:13:42.484Z,10.10
2017-05-04T00:16:11.644Z,10.20
2017-05-04T00:18:40.801Z,10.20
2017-05-04T00:21:09.979Z,10.20
2017-05-04T00:23:38.367Z,10.10
2017-05-04T00:26:07.528Z,10.20
2017-05-04T00:28:35.945Z,10.10
2017-05-04T00:31:05.104Z,10.10
2017-05-04T00:33:33.507Z,10.10
2017-05-04T00:36:02.687Z,10.20
2017-05-04T00:38:31.840Z,10.20
2017-05-04T00:41:00.995Z,10.20
2017-05-04T00:43:30.178Z,10.10
2017-05-04T00:45:59.337Z,10.10
2017-05-04T00:48:27.727Z,10.10
2017-05-04T00:50:56.131Z,10.10
2017-05-04T00:53:24.523Z,10.10
2017-05-04T00:55:53.689Z,10.10
2017-05-04T00:58:22.880Z,10.10
2017-05-04T01:00:51.273Z,10.00
2017-05-04T01:03:20.424Z,10.00
2017-05-04T01:05:48.847Z,10.00
2017-05-04T01:08:18.003Z,10.00
2017-05-04T01:10:47.161Z,9.90
2017-05-04T01:13:16.347Z,10.00
2017-05-04T01:15:44.735Z,10.00
2017-05-04T01:18:13.896Z,9.90
2017-05-04T01:20:43.080Z,9.90
2017-05-04T01:23:12.227Z,9.80
2017-05-04T01:25:40.616Z,9.80
2017-05-04T01:28:09.796Z,9.80
2017-05-04T01:30:37.845Z,9.70
2017-05-04T01:33:06.995Z,9.80
2017-05-04T01:35:36.172Z,9.70
2017-05-04T01:38:05.330Z,9.60
2017-05-04T01:40:34.486Z,9.60
2017-05-04T01:43:04.560Z,9.60
2017-05-04T01:45:33.706Z,9.60
2017-05-04T01:48:02.860Z,9.60
2017-05-04T01:50:32.039Z,9.50
2017-05-04T01:53:00.432Z,9.50
2017-05-04T01:55:29.587Z,9.50
2017-05-04T01:57:58.769Z,9.50
2017-05-04T02:00:27.164Z,9.50
2017-05-04T02:02:56.319Z,9.40
2017-05-04T02:05:25.501Z,9.30
2017-05-04T02:07:54.652Z,9.30
2017-05-04T02:10:23.804Z,9.30
2017-05-04T02:12:53.349Z,9.20
2017-05-04T02:15:22.507Z,9.20
2017-05-04T02:17:50.896Z,9.20
2017-05-04T02:20:20.089Z,9.20
2017-05-04T02:22:48.475Z,9.20
2017-05-04T02:25:17.628Z,9.20
2017-05-04T02:27:46.807Z,9.30
2017-05-04T02:30:15.198Z,9.20
2017-05-04T02:32:43.579Z,9.30
2017-05-04T02:35:12.772Z,9.20
2017-05-04T02:37:41.914Z,9.20
2017-05-04T02:40:11.068Z,9.10
2017-05-04T02:42:40.344Z,9.10
2017-05-04T02:45:09.496Z,9.10
2017-05-04T02:47:38.653Z,9.10
2017-05-04T02:50:07.814Z,9.10
2017-05-04T02:52:37.195Z,9.00
2017-05-04T02:55:06.349Z,9.00
2017-05-04T02:57:35.523Z,8.90
2017-05-04T03:00:04.670Z,8.80
2017-05-04T03:02:33.822Z,8.90
2017-05-04T03:05:02.244Z,8.80
2017-05-04T03:07:31.399Z,8.80
2017-05-04T03:10:00.542Z,8.70
2017-05-04T03:12:29.735Z,8.60
2017-05-04T03:14:58.889Z,8.60
2017-05-04T03:17:28.039Z,8.50
2017-05-04T03:19:57.228Z,8.50
2017-05-04T03:22:26.370Z,8.50
2017-05-04T03:24:54.757Z,8.50
2017-05-04T03:27:23.940Z,8.30
2017-05-04T03:29:53.103Z,8.30
2017-05-04T03:32:22.942Z,8.20
2017-05-04T03:34:51.394Z,8.20
2017-05-04T03:37:20.552Z,8.10
2017-05-04T03:39:49.705Z,8.00
2017-05-04T03:42:18.875Z,8.00
2017-05-04T03:44:47.264Z,7.90
2017-05-04T03:47:16.416Z,7.90
2017-05-04T03:49:45.595Z,7.90
2017-05-04T03:52:14.743Z,7.90
2017-05-04T03:54:43.896Z,7.90
2017-05-04T03:57:13.067Z,7.80
2017-05-04T03:59:42.231Z,7.80
2017-05-04T04:02:11.397Z,7.80
2017-05-04T04:04:39.817Z,7.80
2017-05-04T04:07:08.985Z,7.90
2017-05-04T04:09:38.147Z,7.90
2017-05-04T04:12:07.353Z,7.90
2017-05-04T04:14:36.510Z,7.90
2017-05-04T04:17:05.320Z,7.90
2017-05-04T04:19:34.512Z,8.00
2017-05-04T04:22:03.663Z,8.00
2017-05-04T04:24:32.824Z,7.90
2017-05-04T04:27:02.034Z,8.00
2017-05-04T04:29:31.187Z,8.00
2017-05-04T04:31:59.573Z,8.00
2017-05-04T04:34:28.760Z,8.10
2017-05-04T04:36:57.929Z,8.20
2017-05-04T04:39:27.088Z,8.30
2017-05-04T04:41:56.269Z,8.30
2017-05-04T04:44:25.434Z,8.40
2017-05-04T04:46:54.670Z,8.40
2017-05-04T04:49:23.098Z,8.40
2017-05-04T04:51:52.252Z,8.50
2017-05-04T04:54:20.640Z,8.40
2017-05-04T04:56:49.057Z,8.70
2017-05-04T04:59:17.451Z,8.80
2017-05-04T05:01:46.615Z,8.90
2017-05-04T05:04:15.801Z,9.00
2017-05-04T05:06:44.197Z,9.00
2017-05-04T05:09:12.588Z,9.80
2017-05-04T05:11:41.790Z,10.30
2017-05-04T05:14:10.960Z,10.80
2017-05-04T05:16:40.119Z,11.40
2017-05-04T05:19:08.544Z,11.40
2017-05-04T05:21:37.708Z,12.70
2017-05-04T05:24:06.876Z,12.90
2017-05-04T05:26:35.296Z,12.90
2017-05-04T05:29:03.687Z,13.80
2017-05-04T05:31:32.853Z,14.10
2017-05-04T05:34:03.025Z,13.80
2017-05-04T05:36:32.223Z,13.60
2017-05-04T05:39:01.397Z,13.30
2017-05-04T05:41:30.599Z,12.90
2017-05-04T05:43:59.763Z,13.00
2017-05-04T05:46:28.164Z,12.90
2017-05-04T05:48:56.594Z,12.70
2017-05-04T05:51:24.997Z,12.10
2017-05-04T05:53:53.387Z,12.10
2017-05-04T05:56:22.583Z,12.80
2017-05-04T05:58:51.750Z,12.20
2017-05-04T06:01:20.917Z,11.20
2017-05-04T06:03:50.104Z,10.50
2017-05-04T06:06:19.277Z,10.20
2017-05-04T06:08:48.439Z,10.00
2017-05-04T06:11:17.623Z,10.10
2017-05-04T06:13:46.014Z,10.10
2017-05-04T06:16:15.176Z,10.20
2017-05-04T06:18:43.600Z,10.20
2017-05-04T06:21:12.756Z,10.50
2017-05-04T06:23:41.156Z,10.40
2017-05-04T06:26:10.356Z,10.40
2017-05-04T06:28:39.515Z,10.50
2017-05-04T06:31:08.682Z,10.50
2017-05-04T06:33:37.881Z,10.50
2017-05-04T06:36:06.100Z,10.40
2017-05-04T06:38:35.290Z,10.40
2017-05-04T06:41:04.470Z,10.20
2017-05-04T06:43:33.645Z,10.30
2017-05-04T06:46:02.048Z,10.30
2017-05-04T06:48:31.254Z,10.50
2017-05-04T06:50:59.657Z,10.40
2017-05-04T06:53:28.821Z,10.60
2017-05-04T06:55:58.020Z,10.80
2017-05-04T06:58:27.184Z,10.80
2017-05-04T07:00:56.338Z,10.80
2017-05-04T07:03:25.523Z,10.70
2017-05-04T07:05:54.683Z,10.60
2017-05-04T07:08:23.842Z,10.70
2017-05-04T07:10:53.022Z,10.80
2017-05-04T07:13:22.182Z,10.80
2017-05-04T07:15:51.336Z,10.90
2017-05-04T07:18:20.523Z,10.90
2017-05-04T07:20:49.684Z,10.70
2017-05-04T07:23:18.077Z,10.70
2017-05-04T07:25:47.259Z,11.00
2017-05-04T07:28:16.419Z,11.10
2017-05-04T07:30:45.584Z,11.30
2017-05-04T07:33:14.000Z,11.30
2017-05-04T07:35:43.155Z,11.20
2017-05-04T07:38:12.314Z,11.10
2017-05-04T07:40:41.508Z,11.30
2017-05-04T07:43:09.900Z,11.30
2017-05-04T07:45:39.068Z,11.70
2017-05-04T07:48:07.488Z,11.70
2017-05-04T07:50:36.648Z,12.00
2017-05-04T07:53:05.051Z,12.00
2017-05-04T07:55:34.252Z,12.00
2017-05-04T07:58:03.411Z,11.90
2017-05-04T08:00:32.572Z,11.70
2017-05-04T08:03:01.011Z,11.60
2017-05-04T08:05:29.401Z,11.50
2017-05-04T08:07:58.564Z,11.80
2017-05-04T08:10:27.766Z,13.40
2017-05-04T08:12:56.193Z,13.50
2017-05-04T08:15:25.181Z,13.80
2017-05-04T08:17:54.360Z,13.30
2017-05-04T08:20:23.524Z,12.90
2017-05-04T08:22:51.916Z,12.90
2017-05-04T08:25:21.113Z,12.50
2017-05-04T08:27:50.277Z,12.60
2017-05-04T08:30:18.676Z,12.60
2017-05-04T08:32:47.863Z,12.40
2017-05-04T08:35:17.039Z,12.40
2017-05-04T08:37:46.204Z,12.30
2017-05-04T08:40:15.394Z,12.40
2017-05-04T08:42:44.560Z,12.60
2017-05-04T08:45:13.725Z,12.70
2017-05-04T08:47:42.923Z,12.70
2017-05-04T08:50:12.086Z,12.80
2017-05-04T08:52:41.253Z,12.90
2017-05-04T08:55:10.452Z,12.90
2017-05-04T08:57:39.616Z,13.10
2017-05-04T09:00:08.013Z,13.00
2017-05-04T09:02:37.208Z,13.20
2017-05-04T09:05:06.369Z,13.30
2017-05-04T09:07:34.760Z,13.40
2017-05-04T09:10:03.179Z,13.80
2017-05-04T09:12:32.340Z,13.80
2017-05-04T09:15:01.501Z,14.10
2017-05-04T09:17:30.693Z,14.00
2017-05-04T09:19:59.863Z,14.30
2017-05-04T09:22:29.033Z,14.50
2017-05-04T09:24:58.223Z,14.20
2017-05-04T09:27:26.620Z,14.20
2017-05-04T09:29:55.783Z,13.20
2017-05-04T09:32:24.975Z,13.20
2017-05-04T09:34:54.153Z,13.00
2017-05-04T09:37:23.324Z,12.70
2017-05-04T09:39:52.515Z,12.50
2017-05-04T09:42:20.909Z,12.50
2017-05-04T09:44:50.061Z,12.00
2017-05-04T09:47:18.488Z,12.00
2017-05-04T09:49:46.876Z,11.90
2017-05-04T09:52:16.045Z,11.70
2017-05-04T09:54:45.257Z,11.60
2017-05-04T09:57:13.668Z,11.60
2017-05-04T09:59:42.831Z,11.30
2017-05-04T10:02:11.276Z,11.20
2017-05-04T10:04:41.333Z,11.00
2017-05-04T10:07:10.559Z,10.90
2017-05-04T10:09:38.983Z,10.90
2017-05-04T10:12:07.379Z,11.00
2017-05-04T10:14:36.548Z,10.80
2017-05-04T10:17:05.741Z,10.80
2017-05-04T10:19:34.903Z,10.70
2017-05-04T10:22:04.073Z,10.50
2017-05-04T10:24:33.262Z,10.30
2017-05-04T10:27:02.424Z,10.40
2017-05-04T10:29:31.596Z,10.50
2017-05-04T10:32:01.776Z,10.50
2017-05-04T10:34:30.177Z,10.50
2017-05-04T10:36:59.336Z,10.30
2017-05-04T10:39:28.547Z,10.20
2017-05-04T10:41:57.699Z,10.10
2017-05-04T10:44:26.864Z,10.10
2017-05-04T10:46:56.056Z,10.20
2017-05-04T10:49:25.234Z,10.20
2017-05-04T10:51:54.388Z,10.10
2017-05-04T10:54:24.552Z,9.80
2017-05-04T10:56:53.705Z,9.70
2017-05-04T10:59:22.880Z,9.70
2017-05-04T11:01:52.040Z,9.70
2017-05-04T11:04:21.205Z,9.70
2017-05-04T11:06:50.367Z,9.90
2017-05-04T11:09:19.534Z,9.80
2017-05-04T11:11:48.686Z,9.70
2017-05-04T11:14:17.874Z,9.80
2017-05-04T11:16:46.276Z,9.80
2017-05-04T11:19:15.447Z,10.00
2017-05-04T11:21:44.639Z,10.00
2017-05-04T11:24:13.795Z,10.00
2017-05-04T11:26:42.192Z,10.00
2017-05-04T11:29:11.031Z,9.90
2017-05-04T11:31:40.196Z,9.70
2017-05-04T11:34:09.348Z,9.70
2017-05-04T11:36:38.535Z,9.70
2017-05-04T11:39:07.685Z,9.70
2017-05-04T11:41:36.845Z,9.60
2017-05-04T11:44:06.023Z,9.60
2017-05-04T11:46:35.180Z,9.50
2017-05-04T11:49:04.327Z,9.60
2017-05-04T11:51:33.507Z,9.70
2017-05-04T11:54:02.673Z,9.70
2017-05-04T11:56:31.839Z,9.70
2017-05-04T11:59:01.020Z,9.80
2017-05-04T12:01:30.171Z,9.80
2017-05-04T12:03:59.331Z,9.80
2017-05-04T12:06:27.759Z,9.80
2017-05-04T12:08:56.152Z,9.80
2017-05-04T12:11:25.316Z,9.70
2017-05-04T12:13:53.731Z,9.70
2017-05-04T12:16:22.911Z,9.50
2017-05-04T12:18:52.064Z,9.40
2017-05-04T12:21:21.261Z,9.30
2017-05-04T12:23:50.344Z,9.30
2017-05-04T12:26:19.545Z,9.20
2017-05-04T12:28:48.735Z,9.20
2017-05-04T12:31:17.877Z,9.10
2017-05-04T12:33:47.023Z,9.20
2017-05-04T12:36:16.215Z,9.20
2017-05-04T12:38:45.389Z,9.20
2017-05-04T12:41:14.576Z,9.30
2017-05-04T12:43:43.788Z,9.40
2017-05-04T12:46:12.950Z,9.40
2017-05-04T12:48:42.110Z,9.40
2017-05-04T12:51:11.310Z,9.30
2017-05-04T12:53:40.485Z,9.40
2017-05-04T12:56:09.636Z,9.60
2017-05-04T12:58:38.065Z,9.50
2017-05-04T13:01:07.241Z,9.60
2017-05-04T13:03:36.404Z,9.60
2017-05-04T13:06:05.609Z,9.60
2017-05-04T13:08:34.781Z,9.70
2017-05-04T13:11:03.936Z,9.80
2017-05-04T13:13:33.138Z,9.90
2017-05-04T13:16:02.303Z,10.00
2017-05-04T13:18:31.459Z,10.10
2017-05-04T13:21:00.644Z,10.20
2017-05-04T13:23:29.799Z,10.30
2017-05-04T13:25:58.963Z,10.40
2017-05-04T13:28:28.344Z,10.40
2017-05-04T13:30:57.506Z,10.60
2017-05-04T13:33:25.894Z,10.50
2017-05-04T13:35:54.132Z,10.50
2017-05-04T13:38:22.534Z,10.60
2017-05-04T13:40:51.695Z,10.60
2017-05-04T13:43:20.119Z,10.60
2017-05-04T13:45:49.272Z,10.40
2017-05-04T13:48:18.423Z,10.40
2017-05-04T13:50:47.622Z,10.40
2017-05-04T13:53:16.787Z,10.50
2017-05-04T13:55:45.965Z,10.50
2017-05-04T13:58:15.150Z,10.60
2017-05-04T14:00:43.559Z,10.60
2017-05-04T14:03:13.089Z,10.60
2017-05-04T14:05:42.956Z,10.70
2017-05-04T14:08:12.122Z,10.60
2017-05-04T14:10:40.511Z,10.60
2017-05-04T14:13:09.725Z,10.60
2017-05-04T14:15:38.880Z,10.60
2017-05-04T14:18:08.036Z,10.60
2017-05-04T14:20:36.469Z,10.60
2017-05-04T14:23:04.867Z,10.60
2017-05-04T14:25:33.262Z,10.70
2017-05-04T14:28:02.498Z,10.70
2017-05-04T14:30:31.652Z,10.60
2017-05-04T14:33:01.558Z,10.60
2017-05-04T14:35:30.020Z,10.60
2017-05-04T14:37:59.193Z,10.70
2017-05-04T14:40:28.365Z,10.70
2017-05-04T14:42:57.567Z,10.60
2017-05-04T14:45:26.750Z,10.50
2017-05-04T14:47:55.909Z,10.50
2017-05-04T14:50:25.113Z,10.40
2017-05-04T14:52:54.284Z,10.50
2017-05-04T14:55:23.445Z,10.50
2017-05-04T14:57:52.647Z,10.50
2017-05-04T15:00:21.811Z,10.40
2017-05-04T15:02:50.224Z,10.40
2017-05-04T15:05:19.417Z,10.30
2017-05-04T15:07:48.823Z,10.20
2017-05-04T15:10:17.999Z,10.20
2017-05-04T15:12:47.200Z,10.20
2017-05-04T15:15:16.380Z,10.20
2017-05-04T15:17:45.556Z,10.20
2017-05-04T15:20:14.920Z,10.20
2017-05-04T15:22:44.083Z,10.10
2017-05-04T15:25:12.501Z,10.10
2017-05-04T15:27:41.695Z,9.90
2017-05-04T15:30:10.864Z,9.90
2017-05-04T15:32:40.027Z,9.90
2017-05-04T15:35:09.215Z,9.90
2017-05-04T15:37:38.380Z,10.00
2017-05-04T15:40:07.551Z,10.00
2017-05-04T15:42:36.746Z,9.90
2017-05-04T15:45:05.899Z,9.90
2017-05-04T15:47:35.064Z,9.80
2017-05-04T15:50:04.253Z,9.80
2017-05-04T15:52:33.415Z,9.80
2017-05-04T15:55:02.579Z,9.80
2017-05-04T15:57:31.764Z,9.80
2017-05-04T16:00:00.959Z,9.70
2017-05-04T16:02:30.131Z,9.70
2017-05-04T16:04:58.982Z,9.80
2017-05-04T16:07:28.157Z,9.80
2017-05-04T16:09:57.315Z,9.80
2017-05-04T16:12:26.507Z,9.80
2017-05-04T16:14:55.332Z,9.80
2017-05-04T16:17:24.492Z,9.80
2017-05-04T16:19:53.675Z,9.90
2017-05-04T16:22:22.841Z,9.90
2017-05-04T16:24:52.003Z,9.90
2017-05-04T16:27:21.193Z,9.90
2017-05-04T16:29:49.590Z,9.90
2017-05-04T16:32:18.769Z,9.80
2017-05-04T16:34:47.963Z,9.80
2017-05-04T16:37:17.124Z,9.80
2017-05-04T16:39:46.280Z,9.80
2017-05-04T16:42:15.464Z,9.90
2017-05-04T16:44:44.625Z,9.90
2017-05-04T16:47:13.776Z,9.90
2017-05-04T16:49:42.199Z,9.90
2017-05-04T16:52:12.036Z,9.80
2017-05-04T16:54:41.183Z,9.80
2017-05-04T16:57:10.372Z,9.80
2017-05-04T16:59:39.529Z,9.80
2017-05-04T17:02:08.687Z,9.80
2017-05-04T17:04:37.104Z,9.80
2017-05-04T17:07:06.256Z,9.70
2017-05-04T17:09:35.407Z,9.70
2017-05-04T17:12:04.610Z,9.70
2017-05-04T17:14:33.769Z,9.70
2017-05-04T17:17:02.930Z,9.70
2017-05-04T17:19:32.112Z,9.70
2017-05-04T17:22:01.268Z,9.70
2017-05-04T17:24:29.655Z,9.70
2017-05-04T17:26:58.842Z,9.60
2017-05-04T17:29:27.047Z,9.60
2017-05-04T17:31:55.451Z,9.60
2017-05-04T17:34:24.631Z,9.60
2017-05-04T17:36:53.792Z,9.50
2017-05-04T17:39:22.184Z,9.50
2017-05-04T17:41:51.364Z,9.50
2017-05-04T17:44:20.514Z,9.50
2017-05-04T17:46:49.671Z,9.50
2017-05-04T17:49:18.863Z,9.50
2017-05-04T17:51:48.019Z,9.40
2017-05-04T17:54:17.398Z,9.40
2017-05-04T17:56:46.231Z,9.40
2017-05-04T17:59:15.379Z,9.30
2017-05-04T18:01:44.541Z,9.20
2017-05-04T18:04:13.729Z,9.20
2017-05-04T18:06:42.903Z,9.10
2017-05-04T18:09:12.063Z,9.10
2017-05-04T18:11:41.256Z,9.10
2017-05-04T18:14:10.420Z,9.00
2017-05-04T18:16:39.591Z,8.90
2017-05-04T18:19:08.789Z,8.90
2017-05-04T18:21:37.952Z,8.90
2017-05-04T18:24:07.446Z,9.00
2017-05-04T18:26:36.683Z,8.90
2017-05-04T18:29:05.848Z,8.90
2017-05-04T18:31:35.034Z,9.00
2017-05-04T18:34:04.036Z,9.00
2017-05-04T18:36:34.451Z,8.90
2017-05-04T18:39:03.612Z,8.90
2017-05-04T18:41:32.790Z,8.90
2017-05-04T18:44:01.959Z,8.90
2017-05-04T18:46:31.117Z,8.90
2017-05-04T18:49:00.297Z,8.80
2017-05-04T18:51:29.447Z,8.80
2017-05-04T18:53:58.598Z,8.80
2017-05-04T18:56:27.778Z,8.80
2017-05-04T18:58:56.926Z,8.70
2017-05-04T19:01:26.084Z,8.70
2017-05-04T19:03:55.268Z,8.60
2017-05-04T19:06:24.423Z,8.60
2017-05-04T19:08:53.574Z,8.50
2017-05-04T19:11:22.756Z,8.40
2017-05-04T19:13:51.911Z,8.40
2017-05-04T19:16:20.299Z,8.30
2017-05-04T19:18:49.484Z,8.30
2017-05-04T19:21:18.909Z,8.20
2017-05-04T19:23:48.063Z,8.20
2017-05-04T19:26:17.242Z,8.20
2017-05-04T19:28:46.390Z,8.20
2017-05-04T19:31:15.552Z,8.10
2017-05-04T19:33:44.727Z,8.10
2017-05-04T19:36:13.879Z,8.20
2017-05-04T19:38:43.026Z,8.10
2017-05-04T19:41:12.216Z,8.10
2017-05-04T19:43:41.372Z,8.10
2017-05-04T19:46:10.532Z,8.10
2017-05-04T19:48:39.735Z,8.10
2017-05-04T19:53:38.067Z,8.10
2017-05-04T19:56:06.161Z,8.00
2017-05-04T19:58:35.324Z,8.00
2017-05-04T20:01:04.306Z,8.00
2017-05-04T20:03:33.491Z,8.00
2017-05-04T20:06:02.665Z,8.00
2017-05-04T20:08:31.818Z,7.90
2017-05-04T20:11:01.002Z,7.90
2017-05-04T20:13:30.156Z,7.90
2017-05-04T20:15:59.218Z,7.90
2017-05-04T20:18:28.412Z,7.90
2017-05-04T20:20:57.571Z,7.90
2017-05-04T20:23:26.727Z,7.90
2017-05-04T20:25:56.067Z,7.90
2017-05-04T20:28:25.218Z,7.90
2017-05-04T20:30:54.055Z,7.90
2017-05-04T20:33:23.243Z,7.90
2017-05-04T20:35:51.637Z,7.90
2017-05-04T20:41:12.141Z,7.80
2017-05-04T20:43:41.373Z,7.80
2017-05-04T20:46:10.544Z,7.80
2017-05-04T20:48:39.720Z,7.80
2017-05-04T20:51:08.893Z,7.90
2017-05-04T20:53:38.078Z,7.90
2017-05-04T20:56:07.248Z,7.80
2017-05-04T21:01:34.132Z,7.80
2017-05-04T21:04:03.318Z,7.80
2017-05-04T21:06:32.538Z,7.90
2017-05-04T21:09:01.721Z,7.90
2017-05-04T21:11:30.899Z,7.80
2017-05-04T21:14:00.085Z,7.80
2017-05-04T21:16:29.310Z,7.90
2017-05-04T21:18:58.489Z,7.90
2017-05-04T21:21:27.716Z,7.90
2017-05-04T21:23:56.929Z,7.90
2017-05-04T21:26:26.114Z,7.90
2017-05-04T21:28:55.298Z,7.90
2017-05-04T21:31:24.510Z,7.90
2017-05-04T21:33:53.699Z,7.80
2017-05-04T21:36:22.924Z,7.80
2017-05-04T21:38:52.173Z,7.80
2017-05-04T21:41:21.362Z,7.80
2017-05-04T21:43:50.596Z,7.80
2017-05-04T21:46:19.801Z,7.80
2017-05-04T21:48:48.990Z,7.90
2017-05-04T21:51:18.168Z,7.90
2017-05-04T21:53:47.378Z,7.90
2017-05-04T21:56:16.561Z,7.80
2017-05-04T21:58:45.733Z,7.90
2017-05-04T22:01:14.947Z,7.90
2017-05-04T22:03:44.133Z,7.90
2017-05-04T22:06:13.306Z,7.80
2017-05-04T22:08:42.554Z,7.80
2017-05-04T22:11:11.766Z,7.90
2017-05-04T22:13:40.950Z,7.80
2017-05-04T22:16:10.161Z,7.80
2017-05-04T22:18:39.347Z,7.80
2017-05-04T22:21:08.516Z,7.80
2017-05-04T22:23:37.717Z,7.80
2017-05-04T22:26:06.900Z,7.80
2017-05-04T22:28:36.073Z,7.90
2017-05-04T22:31:05.972Z,7.80
2017-05-04T22:33:35.150Z,7.90
2017-05-04T22:36:04.324Z,7.90
2017-05-04T22:38:33.539Z,7.90
2017-05-04T22:41:02.717Z,7.90
2017-05-04T22:43:31.901Z,7.80
2017-05-04T22:46:01.121Z,7.80
2017-05-04T22:48:30.306Z,7.80
2017-05-04T22:50:59.477Z,7.80
2017-05-04T22:53:28.691Z,7.90
2017-05-04T22:55:57.870Z,7.80
2017-05-04T22:58:26.287Z,7.80
2017-05-04T23:00:55.495Z,7.90
2017-05-04T23:03:24.670Z,7.90
2017-05-04T23:05:53.861Z,7.90
2017-05-04T23:08:23.744Z,7.90
2017-05-04T23:10:52.925Z,8.00
2017-05-04T23:13:22.105Z,7.90
2017-05-04T23:15:51.308Z,7.90
2017-05-04T23:18:20.493Z,7.90
2017-05-04T23:20:49.668Z,7.90
2017-05-04T23:23:18.109Z,7.90
2017-05-04T23:25:46.525Z,7.90
2017-05-04T23:28:15.707Z,8.00
2017-05-04T23:30:44.913Z,8.00
2017-05-04T23:33:14.095Z,7.90
2017-05-04T23:35:43.279Z,7.90
2017-05-04T23:38:12.488Z,8.00
2017-05-04T23:40:40.901Z,8.00
2017-05-04T23:43:10.079Z,8.00
2017-05-04T23:45:39.294Z,8.00
2017-05-04T23:48:08.465Z,8.00
2017-05-04T23:50:37.633Z,8.00
2017-05-04T23:53:06.835Z,7.90
2017-05-04T23:55:36.017Z,7.90
2017-05-04T23:58:05.203Z,8.00
